Time;durP1;ratioP1;P1;durP2;ratioP2;P2;SDS_P1;SDS_P2;PMS_P1;PMS_P2;Temp;Humidity;BMP_temperature;BMP_pressure;BME280_temperature;BME280_humidity;BME280_pressure;Samples;Min_cycle;Max_cycle;Signal;HPM_P1;HPM_P2
2023/04/10 00:00:56;;;;;;;5.82;1.73;;;;;;;;;;5032079;28;20053;-64
2023/04/10 00:03:26;;;;;;;6.18;1.75;;;;;;;;;;5029827;28;20057;-64
2023/04/10 00:05:56;;;;;;;7.32;1.95;;;;;;;;;;4950689;28;20045;-64
2023/04/10 00:08:26;;;;;;;6.30;1.80;;;;;;;;;;5032328;28;20088;-64
2023/04/10 00:10:56;;;;;;;5.30;2.10;;;;;;;;;;5016694;28;20049;-64
2023/04/10 00:13:26;;;;;;;5.82;2.15;;;;;;;;;;5032052;28;20062;-64
2023/04/10 00:15:56;;;;;;;9.90;1.63;;;;;;;;;;5016080;28;20061;-64
2023/04/10 00:18:27;;;;;;;11.65;2.38;;;;;;;;;;4972937;28;20050;-64
2023/04/10 00:20:57;;;;;;;8.27;2.00;;;;;;;;;;4941738;28;20066;-64
2023/04/10 00:23:27;;;;;;;6.38;2.20;;;;;;;;;;4973137;28;20078;-64
2023/04/10 00:25:57;;;;;;;6.03;1.80;;;;;;;;;;4925280;28;20050;-64
2023/04/10 00:28:27;;;;;;;4.40;1.90;;;;;;;;;;4941151;28;20051;-64
2023/04/10 00:30:57;;;;;;;5.80;1.92;;;;;;;;;;4934319;29;20067;-64
2023/04/10 00:33:26;;;;;;;4.07;1.60;;;;;;;;;;4903233;29;20452;-64
2023/04/10 00:35:56;;;;;;;5.00;1.95;;;;;;;;;;4896367;29;20064;-64
2023/04/10 00:38:26;;;;;;;7.97;2.60;;;;;;;;;;4874392;29;20064;-64
2023/04/10 00:40:56;;;;;;;6.35;1.98;;;;;;;;;;4884533;29;20091;-64
2023/04/10 00:43:26;;;;;;;11.65;1.90;;;;;;;;;;4915366;29;20519;-64
2023/04/10 00:45:57;;;;;;;6.30;2.00;;;;;;;;;;4877559;29;20052;-64
2023/04/10 00:48:26;;;;;;;5.28;1.65;;;;;;;;;;4861443;29;20498;-64
2023/04/10 00:50:56;;;;;;;4.88;2.05;;;;;;;;;;4878003;29;20064;-64
2023/04/10 00:53:27;;;;;;;5.15;1.77;;;;;;;;;;4877749;29;20541;-64
2023/04/10 00:55:59;;;;;;;5.22;2.00;;;;;;;;;;4885999;29;20057;-64
2023/04/10 00:58:29;;;;;;;6.10;2.28;;;;;;;;;;4896222;29;20516;-64
2023/04/10 01:00:59;;;;;;;7.40;2.15;;;;;;;;;;4908130;29;20053;-64
2023/04/10 01:03:29;;;;;;;10.07;2.20;;;;;;;;;;4886786;29;20105;-64
2023/04/10 01:06:05;;;;;;;6.35;2.40;;;;;;;;;;4895552;29;20060;-65
2023/04/10 01:08:59;;;;;;;8.35;2.50;;;;;;;;;;4880296;29;20059;-64
2023/04/10 01:11:41;;;;;;;7.75;2.08;;;;;;;;;;4912943;29;20044;-64
2023/04/10 01:14:26;;;;;;;8.25;2.40;;;;;;;;;;4881609;29;20063;-64
2023/04/10 01:17:03;;;;;;;10.35;2.50;;;;;;;;;;4913737;29;20059;-64
2023/04/10 01:20:17;;;;;;;6.90;2.40;;;;;;;;;;4915877;29;20060;-64
2023/04/10 01:23:23;;;;;;;6.05;2.05;;;;;;;;;;4928775;28;20062;-64
2023/04/10 01:26:02;;;;;;;9.25;2.50;;;;;;;;;;4944066;29;20456;-64
2023/04/10 01:29:02;;;;;;;12.40;2.55;;;;;;;;;;4934087;29;20066;-65
2023/04/10 01:31:35;;;;;;;;;;;;;;;;;;4925079;29;20052;-65
2023/04/10 01:34:10;;;;;;;7.35;2.35;;;;;;;;;;4933522;29;19930;-65
2023/04/10 01:36:50;;;;;;;8.43;2.50;;;;;;;;;;4898515;29;20048;-65
2023/04/10 01:39:21;;;;;;;9.45;3.00;;;;;;;;;;4863990;29;20049;-65
2023/04/10 01:41:53;;;;;;;6.43;2.60;;;;;;;;;;4876625;29;20449;-65
2023/04/10 01:44:35;;;;;;;10.25;2.33;;;;;;;;;;4848249;29;20052;-65
2023/04/10 01:47:08;;;;;;;5.40;2.40;;;;;;;;;;4876422;29;20057;-65
2023/04/10 01:49:43;;;;;;;8.90;2.35;;;;;;;;;;4833580;29;20480;-64
2023/04/10 01:52:15;;;;;;;8.70;2.35;;;;;;;;;;4858011;29;20065;-65
2023/04/10 01:54:52;;;;;;;6.75;2.63;;;;;;;;;;4842347;29;20056;-64
2023/04/10 01:57:35;;;;;;;5.93;2.70;;;;;;;;;;4838384;29;20050;-65
2023/04/10 02:00:06;;;;;;;12.20;3.63;;;;;;;;;;4818260;29;20444;-65
2023/04/10 02:02:43;;;;;;;9.60;2.88;;;;;;;;;;4818921;29;20050;-65
2023/04/10 02:05:16;;;;;;;8.82;2.70;;;;;;;;;;4794933;29;20060;-65
2023/04/10 02:08:04;;;;;;;8.70;3.05;;;;;;;;;;4826663;29;20060;-65
2023/04/10 02:11:06;;;;;;;8.13;2.80;;;;;;;;;;4874509;29;20071;-65
2023/04/10 02:13:38;;;;;;;5.63;2.10;;;;;;;;;;4833154;29;20376;-65
2023/04/10 02:16:08;;;;;;;9.57;2.70;;;;;;;;;;4801578;29;20553;-65
2023/04/10 02:18:41;;;;;;;12.93;2.47;;;;;;;;;;4822591;29;20616;-65
2023/04/10 02:21:11;;;;;;;7.75;2.38;;;;;;;;;;4829131;29;20061;-65
2023/04/10 02:23:41;;;;;;;9.05;2.53;;;;;;;;;;4833715;29;20560;-65
2023/04/10 02:26:11;;;;;;;8.48;3.35;;;;;;;;;;4847655;29;20442;-64
2023/04/10 02:28:41;;;;;;;9.43;2.92;;;;;;;;;;4838516;29;20791;-65
2023/04/10 02:31:10;;;;;;;11.48;3.08;;;;;;;;;;4829235;29;20538;-66
2023/04/10 02:33:40;;;;;;;6.88;2.92;;;;;;;;;;4823715;29;20053;-64
2023/04/10 02:36:11;;;;;;;8.57;2.70;;;;;;;;;;4856822;29;20057;-64
2023/04/10 02:38:41;;;;;;;10.32;2.88;;;;;;;;;;4857266;29;20058;-64
2023/04/10 02:41:12;;;;;;;7.57;2.65;;;;;;;;;;4857063;29;20053;-64
2023/04/10 02:43:42;;;;;;;9.68;2.90;;;;;;;;;;4804816;29;20086;-64
2023/04/10 02:46:12;;;;;;;11.30;3.15;;;;;;;;;;4820578;29;20058;-64
2023/04/10 02:48:42;;;;;;;7.63;2.92;;;;;;;;;;4816314;29;20059;-64
2023/04/10 02:51:12;;;;;;;9.48;3.42;;;;;;;;;;4840729;29;20060;-64
2023/04/10 02:53:43;;;;;;;12.68;4.45;;;;;;;;;;4860261;29;20057;-64
2023/04/10 02:56:24;;;;;;;8.48;3.13;;;;;;;;;;4894071;29;20067;-64
2023/04/10 02:58:54;;;;;;;11.63;4.20;;;;;;;;;;4876678;29;20061;-64
2023/04/10 03:01:25;;;;;;;12.52;4.13;;;;;;;;;;4856505;29;20526;-64
2023/04/10 03:03:56;;;;;;;14.23;5.07;;;;;;;;;;4875019;29;20092;-64
2023/04/10 03:06:35;;;;;;;14.25;4.03;;;;;;;;;;4860453;29;20486;-64
2023/04/10 03:09:05;;;;;;;8.40;3.28;;;;;;;;;;4875103;29;20094;-64
2023/04/10 03:11:35;;;;;;;11.02;3.60;;;;;;;;;;4890294;29;20049;-64
2023/04/10 03:14:05;;;;;;;12.68;4.05;;;;;;;;;;4885935;29;20068;-64
2023/04/10 03:16:35;;;;;;;9.73;3.38;;;;;;;;;;4908965;29;20051;-64
2023/04/10 03:19:05;;;;;;;10.95;3.75;;;;;;;;;;4893563;29;20060;-64
2023/04/10 03:21:36;;;;;;;10.98;3.35;;;;;;;;;;4867129;29;20052;-64
2023/04/10 03:24:07;;;;;;;11.23;3.75;;;;;;;;;;4881908;29;20056;-64
2023/04/10 03:26:37;;;;;;;7.38;3.35;;;;;;;;;;4901254;29;20453;-65
2023/04/10 03:29:07;;;;;;;9.35;3.42;;;;;;;;;;4882587;29;20068;-64
2023/04/10 03:31:36;;;;;;;10.68;4.03;;;;;;;;;;4875230;29;20069;-64
2023/04/10 03:34:06;;;;;;;9.55;3.80;;;;;;;;;;4874673;29;20057;-64
2023/04/10 03:36:37;;;;;;;10.43;4.03;;;;;;;;;;4874567;29;20057;-64
2023/04/10 03:39:08;;;;;;;10.07;4.40;;;;;;;;;;4865194;29;20049;-64
2023/04/10 03:41:38;;;;;;;11.18;4.05;;;;;;;;;;4865736;29;20049;-65
2023/04/10 03:44:08;;;;;;;9.30;3.90;;;;;;;;;;4852936;29;20064;-64
2023/04/10 03:46:38;;;;;;;7.00;3.25;;;;;;;;;;4855922;29;20054;-64
2023/04/10 03:49:08;;;;;;;10.63;4.65;;;;;;;;;;4841418;29;20053;-64
2023/04/10 03:51:39;;;;;;;14.18;5.47;;;;;;;;;;4856221;29;20414;-64
2023/04/10 03:54:09;;;;;;;10.43;4.03;;;;;;;;;;4847351;29;20054;-64
2023/04/10 03:56:39;;;;;;;11.77;4.47;;;;;;;;;;4856160;29;20049;-64
2023/04/10 03:59:09;;;;;;;10.27;4.10;;;;;;;;;;4864075;29;20060;-64
2023/04/10 04:01:41;;;;;;;10.50;4.30;;;;;;;;;;4874675;29;20057;-64
2023/04/10 04:04:12;;;;;;;13.18;4.60;;;;;;;;;;4855826;29;20053;-64
2023/04/10 04:07:19;;;;;;;13.18;5.18;;;;;;;;;;4838334;29;20049;-64
2023/04/10 04:10:00;;;;;;;18.10;5.00;;;;;;;;;;4847069;29;20050;-64
2023/04/10 04:12:48;;;;;;;10.93;4.65;;;;;;;;;;4806533;29;20058;-64
2023/04/10 04:15:36;;;;;;;14.35;4.15;;;;;;;;;;4844975;29;20669;-64
2023/04/10 04:18:20;;;;;;;9.88;3.33;;;;;;;;;;4785028;29;20417;-64
2023/04/10 04:20:55;;;;;;;11.27;4.00;;;;;;;;;;4866313;29;20060;-64
2023/04/10 04:23:54;;;;;;;7.75;3.15;;;;;;;;;;4834846;29;20078;-64
2023/04/10 04:26:35;;;;;;;7.93;3.58;;;;;;;;;;4830154;29;20076;-64
2023/04/10 04:29:31;;;;;;;8.50;2.83;;;;;;;;;;4864588;29;20058;-64
2023/04/10 04:32:15;;;;;;;14.05;3.88;;;;;;;;;;4859429;29;20057;-64
2023/04/10 04:35:17;;;;;;;11.50;3.42;;;;;;;;;;4841135;29;20054;-64
2023/04/10 04:38:19;;;;;;;11.18;4.65;;;;;;;;;;4878648;29;20056;-64
2023/04/10 04:41:31;;;;;;;9.52;4.07;;;;;;;;;;4854713;29;20045;-65
2023/04/10 04:44:18;;;;;;;15.48;4.18;;;;;;;;;;4846227;29;20053;-65
2023/04/10 04:46:58;;;;;;;13.57;5.60;;;;;;;;;;4832025;29;20486;-64
2023/04/10 04:49:52;;;;;;;11.27;4.82;;;;;;;;;;4866068;29;20041;-64
2023/04/10 04:52:45;;;;;;;14.00;5.18;;;;;;;;;;4851019;29;20049;-64
2023/04/10 04:55:25;;;;;;;13.98;5.10;;;;;;;;;;4863652;29;20450;-64
2023/04/10 04:58:05;;;;;;;11.07;4.93;;;;;;;;;;4895710;29;20045;-64
2023/04/10 05:00:47;;;;;;;9.57;3.67;;;;;;;;;;4882676;29;20052;-64
2023/04/10 05:03:46;;;;;;;11.20;4.63;;;;;;;;;;4872229;29;20040;-64
2023/04/10 05:06:47;;;;;;;13.57;4.93;;;;;;;;;;4825114;29;20051;-64
2023/04/10 05:09:34;;;;;;;10.43;4.45;;;;;;;;;;4835832;29;20417;-64
2023/04/10 05:12:16;;;;;;;10.52;3.75;;;;;;;;;;4822490;29;20061;-64
2023/04/10 05:15:04;;;;;;;10.25;4.50;;;;;;;;;;4874036;29;20128;-64
2023/04/10 05:17:57;;;;;;;10.82;4.63;;;;;;;;;;4877601;29;20429;-64
2023/04/10 05:21:01;;;;;;;11.63;4.05;;;;;;;;;;4859483;29;20530;-64
2023/04/10 05:24:08;;;;;;;15.65;4.65;;;;;;;;;;4846249;29;20054;-64
2023/04/10 05:27:12;;;;;;;11.35;4.45;;;;;;;;;;4830064;29;20059;-64
2023/04/10 05:30:03;;;;;;;16.30;4.80;;;;;;;;;;4806319;29;20051;-64
2023/04/10 05:32:38;;;;;;;10.68;4.05;;;;;;;;;;4821671;29;20539;-64
2023/04/10 05:35:23;;;;;;;9.73;4.03;;;;;;;;;;4813226;29;20058;-64
2023/04/10 05:38:18;;;;;;;12.48;3.55;;;;;;;;;;4780792;29;20077;-64
2023/04/10 05:41:15;;;;;;;11.18;4.30;;;;;;;;;;4821888;29;20542;-64
2023/04/10 05:44:24;;;;;;;10.98;4.28;;;;;;;;;;4858924;29;20058;-65
2023/04/10 05:47:30;;;;;;;12.05;4.03;;;;;;;;;;4840143;29;20050;-64
2023/04/10 05:50:20;;;;;;;12.23;3.47;;;;;;;;;;4845175;29;20560;-64
2023/04/10 05:52:59;;;;;;;13.15;4.40;;;;;;;;;;4816782;29;20089;-64
2023/04/10 05:55:42;;;;;;;10.30;3.60;;;;;;;;;;4812805;29;20058;-64
2023/04/10 05:58:47;;;;;;;9.82;4.18;;;;;;;;;;4852182;29;20061;-64
2023/04/10 06:01:15;;;;;;;9.18;4.70;;;;;;;;;;4843184;29;20450;-64
2023/04/10 06:04:03;;;;;;;11.65;4.00;;;;;;;;;;4802586;29;20059;-65
2023/04/10 06:06:32;;;;;;;10.02;3.60;;;;;;;;;;4814999;29;20061;-64
2023/04/10 06:08:59;;;;;;;8.25;3.97;;;;;;;;;;4805128;29;20737;-64
2023/04/10 06:11:28;;;;;;;12.10;3.40;;;;;;;;;;4787824;29;20066;-64
2023/04/10 06:13:57;;;;;;;9.35;3.90;;;;;;;;;;4748977;30;20560;-65
2023/04/10 06:16:40;;;;;;;10.13;4.15;;;;;;;;;;4748872;30;20056;-64
2023/04/10 06:19:08;;;;;;;9.80;2.92;;;;;;;;;;4700296;30;20057;-64
2023/04/10 06:21:38;;;;;;;9.90;3.47;;;;;;;;;;4671876;30;20054;-64
2023/04/10 06:24:08;;;;;;;12.48;3.65;;;;;;;;;;4693100;30;20060;-64
2023/04/10 06:26:40;;;;;;;12.25;4.25;;;;;;;;;;4748533;30;20063;-64
2023/04/10 06:29:10;;;;;;;9.48;4.45;;;;;;;;;;4748983;30;20048;-64
2023/04/10 06:31:40;;;;;;;10.30;3.30;;;;;;;;;;4748886;30;20056;-65
2023/04/10 06:34:10;;;;;;;11.82;3.22;;;;;;;;;;4720857;30;20052;-65
2023/04/10 06:36:48;;;;;;;;;;;;;;;;;;4748974;30;20071;-64
2023/04/10 06:39:19;;;;;;;12.07;3.75;;;;;;;;;;4749082;30;19933;-65
2023/04/10 06:41:49;;;;;;;9.95;3.10;;;;;;;;;;4733976;30;20544;-65
2023/04/10 06:44:33;;;;;;;6.78;3.22;;;;;;;;;;4772819;29;20058;-64
2023/04/10 06:47:05;;;;;;;10.90;3.53;;;;;;;;;;4754430;30;20069;-64
2023/04/10 06:49:35;;;;;;;9.55;3.90;;;;;;;;;;4816806;29;20520;-64
2023/04/10 06:52:05;;;;;;;12.85;3.78;;;;;;;;;;4830558;29;20054;-65
2023/04/10 06:54:35;;;;;;;8.85;3.17;;;;;;;;;;4857067;29;20068;-64
2023/04/10 06:57:06;;;;;;;9.02;2.70;;;;;;;;;;4856774;29;20060;-65
2023/04/10 06:59:36;;;;;;;10.82;3.35;;;;;;;;;;4856823;29;20057;-65
2023/04/10 07:02:05;;;;;;;9.52;2.92;;;;;;;;;;4868326;29;20071;-65
2023/04/10 07:04:35;;;;;;;9.95;4.22;;;;;;;;;;4875420;29;20572;-64
2023/04/10 07:07:08;;;;;;;12.23;4.82;;;;;;;;;;4875699;29;20514;-64
2023/04/10 07:09:38;;;;;;;8.95;3.58;;;;;;;;;;4901989;29;20055;-64
2023/04/10 07:12:08;;;;;;;10.23;2.75;;;;;;;;;;4932123;29;20056;-64
2023/04/10 07:14:38;;;;;;;5.95;2.70;;;;;;;;;;4956335;28;20566;-65
2023/04/10 07:17:08;;;;;;;8.88;3.10;;;;;;;;;;5029288;28;20076;-64
2023/04/10 07:19:38;;;;;;;8.88;3.08;;;;;;;;;;4997222;28;20057;-64
2023/04/10 07:22:07;;;;;;;11.40;3.85;;;;;;;;;;5012947;28;20060;-64
2023/04/10 07:24:37;;;;;;;8.38;3.20;;;;;;;;;;5031272;28;20519;-64
2023/04/10 07:27:07;;;;;;;16.17;4.70;;;;;;;;;;5031558;28;20060;-64
2023/04/10 07:29:36;;;;;;;11.10;4.55;;;;;;;;;;4980191;28;20061;-64
2023/04/10 07:32:06;;;;;;;11.40;4.60;;;;;;;;;;5031437;28;20042;-65
2023/04/10 07:34:36;;;;;;;14.02;4.05;;;;;;;;;;4997291;28;20053;-64
2023/04/10 07:37:07;;;;;;;10.43;4.30;;;;;;;;;;4981569;28;20068;-64
2023/04/10 07:39:37;;;;;;;7.93;3.42;;;;;;;;;;5031354;28;20389;-64
2023/04/10 07:42:07;;;;;;;12.95;3.72;;;;;;;;;;5031364;28;20064;-64
2023/04/10 07:44:36;;;;;;;13.95;3.90;;;;;;;;;;5031132;28;20051;-64
2023/04/10 07:47:06;;;;;;;8.20;3.25;;;;;;;;;;5031471;28;20041;-64
2023/04/10 07:49:36;;;;;;;7.78;3.30;;;;;;;;;;5031098;28;20057;-64
2023/04/10 07:52:05;;;;;;;9.23;3.42;;;;;;;;;;5030231;28;20057;-64
2023/04/10 07:54:35;;;;;;;14.90;3.47;;;;;;;;;;4996313;28;20061;-64
2023/04/10 07:57:05;;;;;;;10.73;3.60;;;;;;;;;;4996890;28;20068;-64
2023/04/10 07:59:34;;;;;;;10.82;4.00;;;;;;;;;;5000135;28;20061;-64
2023/04/10 08:02:06;;;;;;;11.55;3.55;;;;;;;;;;5034922;28;20048;-64
2023/04/10 08:04:35;;;;;;;10.38;4.43;;;;;;;;;;4983613;28;20049;-64
2023/04/10 08:07:06;;;;;;;12.48;4.90;;;;;;;;;;4983630;28;20064;-64
2023/04/10 08:09:36;;;;;;;8.85;3.60;;;;;;;;;;5016520;28;20065;-64
2023/04/10 08:12:06;;;;;;;11.52;3.67;;;;;;;;;;5034768;28;20405;-64
2023/04/10 08:14:35;;;;;;;12.52;4.85;;;;;;;;;;5034864;28;20147;-64
2023/04/10 08:17:05;;;;;;;13.15;3.50;;;;;;;;;;5034776;28;20045;-64
2023/04/10 08:19:35;;;;;;;8.52;3.63;;;;;;;;;;4973301;28;20054;-64
2023/04/10 08:22:05;;;;;;;12.35;4.20;;;;;;;;;;4973404;28;20062;-64
2023/04/10 08:24:34;;;;;;;9.15;4.07;;;;;;;;;;4941276;28;20059;-64
2023/04/10 08:27:04;;;;;;;13.32;4.22;;;;;;;;;;4973449;28;20062;-64
2023/04/10 08:29:34;;;;;;;11.82;4.50;;;;;;;;;;4973422;28;20058;-64
2023/04/10 08:32:05;;;;;;;13.60;4.45;;;;;;;;;;4934376;29;20489;-63
2023/04/10 08:34:34;;;;;;;12.60;4.63;;;;;;;;;;4934738;29;20060;-64
2023/04/10 08:37:11;;;;;;;14.32;4.68;;;;;;;;;;4934742;29;20544;-64
2023/04/10 08:39:41;;;;;;;10.77;4.53;;;;;;;;;;4934907;29;20436;-64
2023/04/10 08:42:11;;;;;;;13.98;4.18;;;;;;;;;;4903033;29;20056;-64
2023/04/10 08:44:40;;;;;;;9.07;3.38;;;;;;;;;;4934485;29;20173;-64
2023/04/10 08:47:13;;;;;;;7.53;3.95;;;;;;;;;;4918984;29;20414;-65
2023/04/10 08:49:56;;;;;;;8.07;3.42;;;;;;;;;;4934314;29;20055;-65
2023/04/10 08:52:33;;;;;;;8.50;3.10;;;;;;;;;;4934477;29;20064;-65
2023/04/10 08:55:07;;;;;;;5.88;2.55;;;;;;;;;;4903088;29;20090;-65
2023/04/10 08:57:37;;;;;;;11.32;2.83;;;;;;;;;;4973323;28;20046;-65
2023/04/10 09:00:13;;;;;;;8.90;2.40;;;;;;;;;;4992452;28;20046;-64
2023/04/10 09:02:56;;;;;;;10.73;2.88;;;;;;;;;;4992286;28;20062;-65
2023/04/10 09:05:29;;;;;;;10.95;2.67;;;;;;;;;;4992052;28;20053;-64
2023/04/10 09:07:58;;;;;;;6.97;3.50;;;;;;;;;;4991719;28;20384;-64
2023/04/10 09:10:28;;;;;;;6.78;2.58;;;;;;;;;;5026337;28;20053;-64
2023/04/10 09:12:58;;;;;;;5.35;2.45;;;;;;;;;;5033723;28;20397;-64
2023/04/10 09:15:28;;;;;;;7.63;2.65;;;;;;;;;;5033681;28;20056;-65
2023/04/10 09:18:02;;;;;;;7.10;2.75;;;;;;;;;;5033638;28;20037;-64
2023/04/10 09:20:32;;;;;;;7.55;3.13;;;;;;;;;;4982801;28;20064;-65
2023/04/10 09:23:20;;;;;;;9.10;3.25;;;;;;;;;;4999797;28;20064;-65
2023/04/10 09:25:50;;;;;;;10.43;3.97;;;;;;;;;;4998476;28;20088;-65
2023/04/10 09:28:19;;;;;;;16.95;4.80;;;;;;;;;;4959254;28;20422;-65
2023/04/10 09:30:49;;;;;;;9.93;4.40;;;;;;;;;;4991656;28;20066;-64
2023/04/10 09:33:26;;;;;;;11.80;4.35;;;;;;;;;;4975548;28;20058;-64
2023/04/10 09:36:02;;;;;;;10.70;4.60;;;;;;;;;;4991496;28;20050;-64
2023/04/10 09:38:33;;;;;;;10.10;4.60;;;;;;;;;;4976377;28;20414;-64
2023/04/10 09:41:10;;;;;;;12.48;4.70;;;;;;;;;;4991349;28;20058;-63
2023/04/10 09:43:42;;;;;;;14.90;4.25;;;;;;;;;;4958998;28;20193;-63
2023/04/10 09:46:24;;;;;;;14.63;3.45;;;;;;;;;;4958980;28;20058;-63
2023/04/10 09:48:55;;;;;;;7.22;3.13;;;;;;;;;;4975456;28;20054;-63
2023/04/10 09:51:29;;;;;;;7.15;2.35;;;;;;;;;;4974803;28;20537;-63
2023/04/10 09:54:00;;;;;;;7.82;3.05;;;;;;;;;;4958756;28;20057;-64
2023/04/10 09:56:30;;;;;;;6.22;2.75;;;;;;;;;;4943211;28;20062;-63
2023/04/10 09:59:03;;;;;;;7.57;3.80;;;;;;;;;;4990884;28;20059;-63
2023/04/10 10:01:34;;;;;;;9.55;4.05;;;;;;;;;;4990451;28;20065;-64
2023/04/10 10:04:05;;;;;;;14.05;4.95;;;;;;;;;;4991084;28;20057;-63
2023/04/10 10:06:37;;;;;;;7.85;3.80;;;;;;;;;;5007546;28;20457;-63
2023/04/10 10:09:07;;;;;;;7.97;3.97;;;;;;;;;;5013011;28;20406;-63
2023/04/10 10:11:37;;;;;;;11.07;3.15;;;;;;;;;;5027159;28;20057;-63
2023/04/10 10:14:15;;;;;;;13.55;4.45;;;;;;;;;;4978410;28;20502;-63
2023/04/10 10:16:49;;;;;;;13.00;4.18;;;;;;;;;;5012798;28;20044;-62
2023/04/10 10:19:23;;;;;;;11.55;4.40;;;;;;;;;;5012381;28;20047;-63
2023/04/10 10:21:54;;;;;;;10.68;3.88;;;;;;;;;;4993716;28;20054;-62
2023/04/10 10:24:25;;;;;;;9.77;4.18;;;;;;;;;;4977698;28;20387;-63
2023/04/10 10:26:57;;;;;;;8.70;3.42;;;;;;;;;;5011258;28;20426;-62
2023/04/10 10:29:31;;;;;;;11.40;4.10;;;;;;;;;;5012267;28;20037;-63
2023/04/10 10:32:03;;;;;;;9.10;3.63;;;;;;;;;;5010198;28;20529;-63
2023/04/10 10:34:34;;;;;;;9.45;4.38;;;;;;;;;;5010232;28;20057;-63
2023/04/10 10:37:05;;;;;;;9.98;3.83;;;;;;;;;;5010076;28;20073;-63
2023/04/10 10:39:58;;;;;;;11.85;4.53;;;;;;;;;;4945466;28;20053;-65
2023/04/10 10:42:30;;;;;;;12.60;6.30;;;;;;;;;;5010379;28;20532;-63
2023/04/10 10:45:32;;;;;;;20.25;6.65;;;;;;;;;;5012194;28;20045;-63
2023/04/10 10:48:02;;;;;;;14.85;6.82;;;;;;;;;;5009823;28;20053;-63
2023/04/10 10:50:55;;;;;;;17.75;7.40;;;;;;;;;;4993654;28;20046;-63
2023/04/10 10:53:39;;;;;;;17.52;6.95;;;;;;;;;;4989904;28;20049;-64
2023/04/10 10:56:35;;;;;;;18.75;7.20;;;;;;;;;;4910000;28;20054;-64
2023/04/10 10:59:05;;;;;;;16.00;6.35;;;;;;;;;;4931199;29;20052;-64
2023/04/10 11:01:35;;;;;;;12.57;6.32;;;;;;;;;;4884954;29;20052;-64
2023/04/10 11:04:46;;;;;;;14.85;5.95;;;;;;;;;;4916382;29;20054;-64
2023/04/10 11:07:17;;;;;;;13.73;5.13;;;;;;;;;;4931776;29;20436;-65
2023/04/10 11:09:52;;;;;;;9.50;4.45;;;;;;;;;;4931374;29;20189;-64
2023/04/10 11:12:25;;;;;;;10.63;4.60;;;;;;;;;;4932063;29;20064;-64
2023/04/10 11:15:00;;;;;;;10.68;3.80;;;;;;;;;;4911642;29;20048;-64
2023/04/10 11:17:51;;;;;;;10.60;3.90;;;;;;;;;;4912489;29;20056;-64
2023/04/10 11:20:25;;;;;;;8.98;3.92;;;;;;;;;;4893142;29;20056;-64
2023/04/10 11:23:12;;;;;;;9.02;4.07;;;;;;;;;;4893236;29;20056;-64
2023/04/10 11:25:52;;;;;;;11.63;3.78;;;;;;;;;;4859868;29;20513;-64
2023/04/10 11:28:34;;;;;;;10.93;4.45;;;;;;;;;;4893204;29;20052;-64
2023/04/10 11:31:21;;;;;;;8.65;4.10;;;;;;;;;;4921638;29;20409;-64
2023/04/10 11:33:57;;;;;;;9.25;3.35;;;;;;;;;;4947651;29;20495;-63
2023/04/10 11:36:27;;;;;;;8.68;3.70;;;;;;;;;;4922210;29;20137;-63
2023/04/10 11:38:59;;;;;;;7.00;3.65;;;;;;;;;;4909930;29;20051;-63
2023/04/10 11:41:34;;;;;;;6.78;4.00;;;;;;;;;;4931610;29;20504;-63
2023/04/10 11:44:09;;;;;;;16.23;3.80;;;;;;;;;;4915565;29;20066;-62
2023/04/10 11:46:41;;;;;;;7.50;3.58;;;;;;;;;;4913170;29;20056;-63
2023/04/10 11:49:10;;;;;;;;;;;;;;;;;;4931912;29;20063;-63
2023/04/10 11:51:44;;;;;;;13.02;4.25;;;;;;;;;;4963265;28;19923;-62
2023/04/10 11:54:18;;;;;;;6.15;2.92;;;;;;;;;;4942053;29;20095;-62
2023/04/10 11:57:07;;;;;;;4.93;2.55;;;;;;;;;;4941129;28;20508;-62
2023/04/10 11:59:38;;;;;;;5.75;2.88;;;;;;;;;;4980383;28;20058;-62
2023/04/10 12:02:13;;;;;;;6.70;2.38;;;;;;;;;;4969300;28;20066;-63
2023/04/10 12:04:43;;;;;;;7.47;2.20;;;;;;;;;;4970682;28;20050;-62
2023/04/10 12:07:14;;;;;;;4.28;2.28;;;;;;;;;;4981458;28;20102;-63
2023/04/10 12:09:44;;;;;;;3.75;2.40;;;;;;;;;;4971424;28;20050;-63
2023/04/10 12:12:14;;;;;;;5.18;1.98;;;;;;;;;;4988572;28;20054;-63
2023/04/10 12:14:44;;;;;;;4.30;2.03;;;;;;;;;;4955617;28;20053;-62
2023/04/10 12:17:13;;;;;;;3.25;1.67;;;;;;;;;;4933582;29;20059;-63
2023/04/10 12:19:44;;;;;;;4.47;2.10;;;;;;;;;;4923442;29;20058;-62
2023/04/10 12:22:15;;;;;;;3.22;1.65;;;;;;;;;;4949406;29;20095;-64
2023/04/10 12:24:50;;;;;;;4.90;1.88;;;;;;;;;;4900837;29;20057;-62
2023/04/10 12:27:27;;;;;;;2.58;1.63;;;;;;;;;;4900842;29;20076;-62
2023/04/10 12:29:58;;;;;;;4.55;2.45;;;;;;;;;;4925244;29;20059;-62
2023/04/10 12:32:28;;;;;;;4.80;1.77;;;;;;;;;;4949765;29;20484;-63
2023/04/10 12:35:02;;;;;;;3.63;1.80;;;;;;;;;;4949411;29;20070;-63
2023/04/10 12:37:51;;;;;;;3.10;1.80;;;;;;;;;;4949722;29;20515;-63
2023/04/10 12:40:21;;;;;;;2.63;1.33;;;;;;;;;;4950899;28;20059;-63
2023/04/10 12:42:51;;;;;;;2.97;1.70;;;;;;;;;;4934099;29;20044;-63
2023/04/10 12:45:21;;;;;;;2.80;1.50;;;;;;;;;;4953292;29;20415;-63
2023/04/10 12:47:52;;;;;;;2.20;1.20;;;;;;;;;;4952457;29;20063;-63
2023/04/10 12:50:23;;;;;;;4.50;1.30;;;;;;;;;;4949846;29;20063;-63
2023/04/10 12:53:08;;;;;;;2.78;1.55;;;;;;;;;;4952182;28;20455;-63
2023/04/10 12:55:40;;;;;;;2.05;1.33;;;;;;;;;;4961755;28;20548;-63
2023/04/10 12:58:20;;;;;;;2.42;1.20;;;;;;;;;;4991930;28;20062;-63
2023/04/10 13:00:50;;;;;;;2.75;1.40;;;;;;;;;;4943207;28;20058;-63
2023/04/10 13:03:20;;;;;;;2.65;1.60;;;;;;;;;;5011581;28;20062;-63
2023/04/10 13:05:52;;;;;;;2.92;1.38;;;;;;;;;;4975973;28;20050;-63
2023/04/10 13:08:22;;;;;;;1.88;1.10;;;;;;;;;;4991833;28;20193;-64
2023/04/10 13:10:53;;;;;;;2.95;1.38;;;;;;;;;;4991221;28;20042;-63
2023/04/10 13:13:24;;;;;;;6.13;1.33;;;;;;;;;;4991353;28;20059;-64
2023/04/10 13:15:55;;;;;;;4.40;1.40;;;;;;;;;;4958026;28;20055;-64
2023/04/10 13:18:25;;;;;;;2.00;1.20;;;;;;;;;;4991232;28;20046;-63
2023/04/10 13:20:55;;;;;;;3.45;1.45;;;;;;;;;;4972165;28;20055;-64
2023/04/10 13:23:25;;;;;;;3.65;1.52;;;;;;;;;;4972325;28;20537;-63
2023/04/10 13:25:57;;;;;;;3.33;1.83;;;;;;;;;;4978897;28;20061;-63
2023/04/10 13:28:27;;;;;;;5.03;1.70;;;;;;;;;;4945527;28;20438;-63
2023/04/10 13:30:57;;;;;;;2.25;1.23;;;;;;;;;;4975537;28;20062;-63
2023/04/10 13:33:27;;;;;;;3.25;1.40;;;;;;;;;;4991537;28;20054;-63
2023/04/10 13:35:57;;;;;;;1.92;1.20;;;;;;;;;;4991467;28;20058;-63
2023/04/10 13:38:29;;;;;;;2.33;1.15;;;;;;;;;;4960369;28;20062;-63
2023/04/10 13:40:58;;;;;;;2.38;1.10;;;;;;;;;;4959049;28;20059;-63
2023/04/10 13:43:29;;;;;;;3.88;1.40;;;;;;;;;;4991115;28;20097;-64
2023/04/10 13:45:59;;;;;;;2.13;1.20;;;;;;;;;;4959220;28;20442;-64
2023/04/10 13:48:28;;;;;;;2.35;1.23;;;;;;;;;;4930767;28;20494;-62
2023/04/10 13:51:08;;;;;;;2.28;1.42;;;;;;;;;;5011923;28;20067;-62
2023/04/10 13:53:37;;;;;;;2.35;1.52;;;;;;;;;;4978580;28;20070;-62
2023/04/10 13:56:08;;;;;;;5.57;1.33;;;;;;;;;;4971639;28;20062;-63
2023/04/10 13:58:38;;;;;;;2.22;1.15;;;;;;;;;;4983451;28;20069;-63
2023/04/10 14:01:08;;;;;;;2.70;1.15;;;;;;;;;;4991078;28;20062;-62
2023/04/10 14:03:38;;;;;;;3.92;1.30;;;;;;;;;;4989976;28;20053;-63
2023/04/10 14:06:08;;;;;;;2.10;1.23;;;;;;;;;;4974428;28;20055;-63
2023/04/10 14:08:38;;;;;;;1.40;1.02;;;;;;;;;;4989772;28;20054;-63
2023/04/10 14:11:09;;;;;;;1.73;1.10;;;;;;;;;;4973694;28;20410;-63
2023/04/10 14:13:38;;;;;;;1.90;0.90;;;;;;;;;;4958298;28;20066;-66
2023/04/10 14:16:08;;;;;;;1.80;1.10;;;;;;;;;;4958041;28;20058;-66
2023/04/10 14:18:39;;;;;;;1.27;1.00;;;;;;;;;;4989959;28;20046;-63
2023/04/10 14:21:09;;;;;;;2.05;1.10;;;;;;;;;;4989068;28;20457;-64
2023/04/10 14:23:41;;;;;;;1.65;1.02;;;;;;;;;;4997003;28;20498;-63
2023/04/10 14:26:11;;;;;;;;;;;;;;;;;;4963766;28;20055;-65
2023/04/10 14:28:41;;;;;;;1.67;1.20;;;;;;;;;;4939016;28;19929;-63
2023/04/10 14:31:11;;;;;;;2.88;1.10;;;;;;;;;;4988836;28;20548;-63
2023/04/10 14:33:41;;;;;;;1.85;0.90;;;;;;;;;;5001195;28;20060;-63
2023/04/10 14:36:10;;;;;;;1.60;0.80;;;;;;;;;;5031651;28;20049;-65
2023/04/10 14:38:40;;;;;;;2.35;0.52;;;;;;;;;;4996963;28;20061;-65
2023/04/10 14:41:10;;;;;;;1.02;0.80;;;;;;;;;;5014293;28;20052;-64
2023/04/10 14:43:40;;;;;;;1.15;0.60;;;;;;;;;;5013090;28;20061;-65
2023/04/10 14:46:12;;;;;;;2.33;0.57;;;;;;;;;;5031221;28;20052;-64
2023/04/10 14:48:42;;;;;;;1.45;0.70;;;;;;;;;;5012979;28;20069;-66
2023/04/10 14:51:12;;;;;;;1.23;0.60;;;;;;;;;;4996197;28;20046;-66
2023/04/10 14:53:42;;;;;;;0.60;0.43;;;;;;;;;;5031379;28;20052;-65
2023/04/10 14:56:17;;;;;;;1.98;0.63;;;;;;;;;;5013750;28;20061;-65
2023/04/10 14:58:46;;;;;;;0.75;0.50;;;;;;;;;;5031093;28;20520;-65
2023/04/10 15:01:17;;;;;;;1.92;0.50;;;;;;;;;;5031811;28;20049;-66
2023/04/10 15:03:47;;;;;;;1.75;0.63;;;;;;;;;;4995891;28;20053;-66
2023/04/10 15:06:18;;;;;;;1.33;0.40;;;;;;;;;;5012671;28;20061;-66
2023/04/10 15:08:48;;;;;;;2.40;0.50;;;;;;;;;;4996913;28;20064;-66
2023/04/10 15:11:17;;;;;;;2.00;0.50;;;;;;;;;;5012575;28;20049;-67
2023/04/10 15:13:47;;;;;;;2.60;0.50;;;;;;;;;;5031332;28;20041;-67
2023/04/10 15:16:17;;;;;;;1.35;0.52;;;;;;;;;;5031274;28;20038;-66
2023/04/10 15:18:50;;;;;;;1.60;0.70;;;;;;;;;;5031467;28;20375;-66
2023/04/10 15:21:20;;;;;;;1.77;0.50;;;;;;;;;;5031343;28;20056;-66
2023/04/10 15:23:50;;;;;;;0.52;0.40;;;;;;;;;;5030976;28;20500;-67